sensor_id;sensor_type;location;lat;lon;timestamp;temperature;humidity
54202;DHT22;40108;53.152;5.844;2022-11-23T00:01:35;7.70;96.20
54202;DHT22;40108;53.152;5.844;2022-11-23T00:04:04;7.70;96.20
54202;DHT22;40108;53.152;5.844;2022-11-23T00:06:31;7.70;96.20
54202;DHT22;40108;53.152;5.844;2022-11-23T00:08:57;7.70;96.20
54202;DHT22;40108;53.152;5.844;2022-11-23T00:11:24;7.70;96.20
54202;DHT22;40108;53.152;5.844;2022-11-23T00:13:51;7.70;96.30
54202;DHT22;40108;53.152;5.844;2022-11-23T00:16:19;7.70;96.30
54202;DHT22;40108;53.152;5.844;2022-11-23T00:18:45;7.70;96.40
54202;DHT22;40108;53.152;5.844;2022-11-23T00:21:13;7.70;96.50
54202;DHT22;40108;53.152;5.844;2022-11-23T00:23:40;7.70;96.70
54202;DHT22;40108;53.152;5.844;2022-11-23T00:26:06;7.60;96.70
54202;DHT22;40108;53.152;5.844;2022-11-23T00:28:32;7.60;96.80
54202;DHT22;40108;53.152;5.844;2022-11-23T00:30:59;7.60;96.80
54202;DHT22;40108;53.152;5.844;2022-11-23T00:33:25;7.60;96.90
54202;DHT22;40108;53.152;5.844;2022-11-23T00:36:05;7.60;97.00
54202;DHT22;40108;53.152;5.844;2022-11-23T00:38:32;7.60;97.00
54202;DHT22;40108;53.152;5.844;2022-11-23T00:41:03;7.60;97.10
54202;DHT22;40108;53.152;5.844;2022-11-23T00:43:30;7.60;97.10
54202;DHT22;40108;53.152;5.844;2022-11-23T00:46:12;7.60;97.10
54202;DHT22;40108;53.152;5.844;2022-11-23T00:48:38;7.60;97.20
54202;DHT22;40108;53.152;5.844;2022-11-23T00:51:06;7.60;97.20
54202;DHT22;40108;53.152;5.844;2022-11-23T00:53:32;7.60;97.20
54202;DHT22;40108;53.152;5.844;2022-11-23T00:55:58;7.70;97.20
54202;DHT22;40108;53.152;5.844;2022-11-23T00:58:25;7.60;97.20
54202;DHT22;40108;53.152;5.844;2022-11-23T01:01:03;7.70;97.20
54202;DHT22;40108;53.152;5.844;2022-11-23T01:03:29;7.70;97.20
54202;DHT22;40108;53.152;5.844;2022-11-23T01:06:00;7.70;97.30
54202;DHT22;40108;53.152;5.844;2022-11-23T01:08:26;7.60;97.30
54202;DHT22;40108;53.152;5.844;2022-11-23T01:10:51;7.70;97.30
54202;DHT22;40108;53.152;5.844;2022-11-23T01:13:17;7.70;97.30
54202;DHT22;40108;53.152;5.844;2022-11-23T01:15:49;7.70;97.30
54202;DHT22;40108;53.152;5.844;2022-11-23T01:18:15;7.70;97.30
54202;DHT22;40108;53.152;5.844;2022-11-23T01:20:41;7.70;97.20
54202;DHT22;40108;53.152;5.844;2022-11-23T01:23:06;7.70;97.20
54202;DHT22;40108;53.152;5.844;2022-11-23T01:25:35;7.70;97.30
54202;DHT22;40108;53.152;5.844;2022-11-23T01:28:00;7.70;97.20
54202;DHT22;40108;53.152;5.844;2022-11-23T01:30:26;7.70;97.20
54202;DHT22;40108;53.152;5.844;2022-11-23T01:32:52;7.70;97.20
54202;DHT22;40108;53.152;5.844;2022-11-23T01:35:18;7.70;97.30
54202;DHT22;40108;53.152;5.844;2022-11-23T01:37:43;7.70;97.30
54202;DHT22;40108;53.152;5.844;2022-11-23T01:40:10;7.70;97.30
54202;DHT22;40108;53.152;5.844;2022-11-23T01:42:57;7.70;97.30
54202;DHT22;40108;53.152;5.844;2022-11-23T01:45:39;7.70;97.30
54202;DHT22;40108;53.152;5.844;2022-11-23T01:48:12;7.70;97.30
54202;DHT22;40108;53.152;5.844;2022-11-23T01:50:40;7.70;97.30
54202;DHT22;40108;53.152;5.844;2022-11-23T01:53:07;7.70;97.30
54202;DHT22;40108;53.152;5.844;2022-11-23T01:55:33;7.70;97.30
54202;DHT22;40108;53.152;5.844;2022-11-23T01:57:59;7.70;97.30
54202;DHT22;40108;53.152;5.844;2022-11-23T02:00:26;7.70;97.40
54202;DHT22;40108;53.152;5.844;2022-11-23T02:02:57;7.70;97.40
54202;DHT22;40108;53.152;5.844;2022-11-23T02:05:29;7.70;97.40
54202;DHT22;40108;53.152;5.844;2022-11-23T02:07:58;7.70;97.40
54202;DHT22;40108;53.152;5.844;2022-11-23T02:10:25;7.80;97.40
54202;DHT22;40108;53.152;5.844;2022-11-23T02:12:52;7.70;97.40
54202;DHT22;40108;53.152;5.844;2022-11-23T02:15:18;7.80;97.40
54202;DHT22;40108;53.152;5.844;2022-11-23T02:17:43;7.80;97.40
54202;DHT22;40108;53.152;5.844;2022-11-23T02:20:12;7.80;97.40
54202;DHT22;40108;53.152;5.844;2022-11-23T02:28:41;7.80;97.30
54202;DHT22;40108;53.152;5.844;2022-11-23T02:31:07;7.70;97.30
54202;DHT22;40108;53.152;5.844;2022-11-23T02:33:36;7.80;97.40
54202;DHT22;40108;53.152;5.844;2022-11-23T02:36:20;7.70;97.30
54202;DHT22;40108;53.152;5.844;2022-11-23T02:38:47;7.70;97.40
54202;DHT22;40108;53.152;5.844;2022-11-23T02:41:13;7.80;97.40
54202;DHT22;40108;53.152;5.844;2022-11-23T02:43:38;7.70;97.40
54202;DHT22;40108;53.152;5.844;2022-11-23T02:46:05;7.70;97.40
54202;DHT22;40108;53.152;5.844;2022-11-23T02:48:31;7.70;97.40
54202;DHT22;40108;53.152;5.844;2022-11-23T02:50:56;7.70;97.40
54202;DHT22;40108;53.152;5.844;2022-11-23T02:53:22;7.70;97.40
54202;DHT22;40108;53.152;5.844;2022-11-23T02:55:48;7.70;97.40
54202;DHT22;40108;53.152;5.844;2022-11-23T02:58:13;7.70;97.40
54202;DHT22;40108;53.152;5.844;2022-11-23T03:00:39;7.70;97.40
54202;DHT22;40108;53.152;5.844;2022-11-23T03:03:05;7.70;97.40
54202;DHT22;40108;53.152;5.844;2022-11-23T03:05:31;7.70;97.50
54202;DHT22;40108;53.152;5.844;2022-11-23T03:07:57;7.70;97.50
54202;DHT22;40108;53.152;5.844;2022-11-23T03:10:23;7.70;97.50
54202;DHT22;40108;53.152;5.844;2022-11-23T03:12:52;7.70;97.50
54202;DHT22;40108;53.152;5.844;2022-11-23T03:15:18;7.70;97.60
54202;DHT22;40108;53.152;5.844;2022-11-23T03:17:44;7.70;97.60
54202;DHT22;40108;53.152;5.844;2022-11-23T03:20:10;7.70;97.60
54202;DHT22;40108;53.152;5.844;2022-11-23T03:22:36;7.70;97.60
54202;DHT22;40108;53.152;5.844;2022-11-23T03:25:01;7.70;97.60
54202;DHT22;40108;53.152;5.844;2022-11-23T03:27:27;7.70;97.60
54202;DHT22;40108;53.152;5.844;2022-11-23T03:29:53;7.70;97.60
54202;DHT22;40108;53.152;5.844;2022-11-23T03:32:19;7.70;97.70
54202;DHT22;40108;53.152;5.844;2022-11-23T03:34:45;7.70;97.70
54202;DHT22;40108;53.152;5.844;2022-11-23T03:37:10;7.70;97.70
54202;DHT22;40108;53.152;5.844;2022-11-23T03:39:36;7.70;97.60
54202;DHT22;40108;53.152;5.844;2022-11-23T03:42:01;7.70;97.60
54202;DHT22;40108;53.152;5.844;2022-11-23T03:44:27;7.70;97.60
54202;DHT22;40108;53.152;5.844;2022-11-23T03:46:53;7.70;97.60
54202;DHT22;40108;53.152;5.844;2022-11-23T03:49:19;7.70;97.60
54202;DHT22;40108;53.152;5.844;2022-11-23T03:51:44;7.70;97.60
54202;DHT22;40108;53.152;5.844;2022-11-23T03:54:10;7.70;97.60
54202;DHT22;40108;53.152;5.844;2022-11-23T03:56:36;7.70;97.60
54202;DHT22;40108;53.152;5.844;2022-11-23T03:59:01;7.70;97.60
54202;DHT22;40108;53.152;5.844;2022-11-23T04:01:27;7.70;97.50
54202;DHT22;40108;53.152;5.844;2022-11-23T04:03:52;7.70;97.50
54202;DHT22;40108;53.152;5.844;2022-11-23T04:06:18;7.60;97.50
54202;DHT22;40108;53.152;5.844;2022-11-23T04:08:44;7.60;97.50
54202;DHT22;40108;53.152;5.844;2022-11-23T04:11:10;7.60;97.50
54202;DHT22;40108;53.152;5.844;2022-11-23T04:13:36;7.60;97.50
54202;DHT22;40108;53.152;5.844;2022-11-23T04:16:01;7.60;97.50
54202;DHT22;40108;53.152;5.844;2022-11-23T04:18:27;7.50;97.40
54202;DHT22;40108;53.152;5.844;2022-11-23T04:20:53;7.50;97.40
54202;DHT22;40108;53.152;5.844;2022-11-23T04:23:18;7.50;97.40
54202;DHT22;40108;53.152;5.844;2022-11-23T04:25:45;7.50;97.40
54202;DHT22;40108;53.152;5.844;2022-11-23T04:28:11;7.50;97.40
54202;DHT22;40108;53.152;5.844;2022-11-23T04:30:36;7.50;97.40
54202;DHT22;40108;53.152;5.844;2022-11-23T04:33:02;7.50;97.40
54202;DHT22;40108;53.152;5.844;2022-11-23T04:35:27;7.50;97.40
54202;DHT22;40108;53.152;5.844;2022-11-23T04:37:53;7.60;97.30
54202;DHT22;40108;53.152;5.844;2022-11-23T04:40:19;7.60;97.40
54202;DHT22;40108;53.152;5.844;2022-11-23T04:42:44;7.60;97.30
54202;DHT22;40108;53.152;5.844;2022-11-23T04:45:10;7.60;97.30
54202;DHT22;40108;53.152;5.844;2022-11-23T04:47:36;7.60;97.30
54202;DHT22;40108;53.152;5.844;2022-11-23T04:50:01;7.60;97.30
54202;DHT22;40108;53.152;5.844;2022-11-23T04:52:27;7.60;97.30
54202;DHT22;40108;53.152;5.844;2022-11-23T04:54:53;7.70;97.30
54202;DHT22;40108;53.152;5.844;2022-11-23T04:57:18;7.70;97.20
54202;DHT22;40108;53.152;5.844;2022-11-23T04:59:44;7.70;97.20
54202;DHT22;40108;53.152;5.844;2022-11-23T05:02:10;7.60;97.10
54202;DHT22;40108;53.152;5.844;2022-11-23T05:04:35;7.60;97.10
54202;DHT22;40108;53.152;5.844;2022-11-23T05:07:01;7.60;97.10
54202;DHT22;40108;53.152;5.844;2022-11-23T05:09:27;7.60;97.10
54202;DHT22;40108;53.152;5.844;2022-11-23T05:11:52;7.50;97.20
54202;DHT22;40108;53.152;5.844;2022-11-23T05:14:18;7.50;97.20
54202;DHT22;40108;53.152;5.844;2022-11-23T05:16:44;7.50;97.20
54202;DHT22;40108;53.152;5.844;2022-11-23T05:19:09;7.40;97.30
54202;DHT22;40108;53.152;5.844;2022-11-23T05:21:35;7.50;97.30
54202;DHT22;40108;53.152;5.844;2022-11-23T05:24:01;7.50;97.40
54202;DHT22;40108;53.152;5.844;2022-11-23T05:26:26;7.50;97.40
54202;DHT22;40108;53.152;5.844;2022-11-23T05:28:52;7.50;97.40
54202;DHT22;40108;53.152;5.844;2022-11-23T05:31:18;7.50;97.40
54202;DHT22;40108;53.152;5.844;2022-11-23T05:33:44;7.40;97.50
54202;DHT22;40108;53.152;5.844;2022-11-23T05:36:10;7.40;97.50
54202;DHT22;40108;53.152;5.844;2022-11-23T05:38:38;7.40;97.50
54202;DHT22;40108;53.152;5.844;2022-11-23T05:41:05;7.40;97.60
54202;DHT22;40108;53.152;5.844;2022-11-23T05:43:31;7.40;97.60
54202;DHT22;40108;53.152;5.844;2022-11-23T05:46:00;7.40;97.70
54202;DHT22;40108;53.152;5.844;2022-11-23T05:48:26;7.40;97.70
54202;DHT22;40108;53.152;5.844;2022-11-23T05:50:52;7.40;97.70
54202;DHT22;40108;53.152;5.844;2022-11-23T05:53:18;7.50;97.80
54202;DHT22;40108;53.152;5.844;2022-11-23T05:55:44;7.50;97.70
54202;DHT22;40108;53.152;5.844;2022-11-23T05:58:10;7.50;97.80
54202;DHT22;40108;53.152;5.844;2022-11-23T06:00:36;7.50;97.70
54202;DHT22;40108;53.152;5.844;2022-11-23T06:03:02;7.60;97.80
54202;DHT22;40108;53.152;5.844;2022-11-23T06:05:28;7.50;97.80
54202;DHT22;40108;53.152;5.844;2022-11-23T06:07:54;7.60;97.80
54202;DHT22;40108;53.152;5.844;2022-11-23T06:10:36;7.60;97.80
54202;DHT22;40108;53.152;5.844;2022-11-23T06:13:03;7.60;97.70
54202;DHT22;40108;53.152;5.844;2022-11-23T06:15:29;7.50;97.70
54202;DHT22;40108;53.152;5.844;2022-11-23T06:18:01;7.60;97.70
54202;DHT22;40108;53.152;5.844;2022-11-23T06:20:28;7.50;97.70
54202;DHT22;40108;53.152;5.844;2022-11-23T06:22:54;7.50;97.60
54202;DHT22;40108;53.152;5.844;2022-11-23T06:25:21;7.60;97.60
54202;DHT22;40108;53.152;5.844;2022-11-23T06:27:57;7.60;97.60
54202;DHT22;40108;53.152;5.844;2022-11-23T06:30:24;7.60;97.50
54202;DHT22;40108;53.152;5.844;2022-11-23T06:32:50;7.60;97.40
54202;DHT22;40108;53.152;5.844;2022-11-23T06:35:16;7.60;97.40
54202;DHT22;40108;53.152;5.844;2022-11-23T06:37:42;7.60;97.30
54202;DHT22;40108;53.152;5.844;2022-11-23T06:40:09;7.60;97.20
54202;DHT22;40108;53.152;5.844;2022-11-23T06:42:35;7.60;97.20
54202;DHT22;40108;53.152;5.844;2022-11-23T06:45:01;7.50;97.10
54202;DHT22;40108;53.152;5.844;2022-11-23T06:47:29;7.50;97.10
54202;DHT22;40108;53.152;5.844;2022-11-23T06:49:55;7.60;97.00
54202;DHT22;40108;53.152;5.844;2022-11-23T06:52:20;7.50;97.00
54202;DHT22;40108;53.152;5.844;2022-11-23T06:54:46;7.50;96.90
54202;DHT22;40108;53.152;5.844;2022-11-23T06:57:12;7.60;96.80
54202;DHT22;40108;53.152;5.844;2022-11-23T06:59:38;7.60;96.80
54202;DHT22;40108;53.152;5.844;2022-11-23T07:02:03;7.50;96.70
54202;DHT22;40108;53.152;5.844;2022-11-23T07:04:29;7.50;96.60
54202;DHT22;40108;53.152;5.844;2022-11-23T07:06:55;7.50;96.60
54202;DHT22;40108;53.152;5.844;2022-11-23T07:09:20;7.50;96.60
54202;DHT22;40108;53.152;5.844;2022-11-23T07:11:46;7.60;96.60
54202;DHT22;40108;53.152;5.844;2022-11-23T07:14:12;7.50;96.60
54202;DHT22;40108;53.152;5.844;2022-11-23T07:16:37;7.60;96.60
54202;DHT22;40108;53.152;5.844;2022-11-23T07:19:07;7.60;96.50
54202;DHT22;40108;53.152;5.844;2022-11-23T07:21:33;7.60;96.50
54202;DHT22;40108;53.152;5.844;2022-11-23T07:23:59;7.60;96.50
54202;DHT22;40108;53.152;5.844;2022-11-23T07:26:24;7.60;96.50
54202;DHT22;40108;53.152;5.844;2022-11-23T07:28:50;7.60;96.50
54202;DHT22;40108;53.152;5.844;2022-11-23T07:31:16;7.60;96.50
54202;DHT22;40108;53.152;5.844;2022-11-23T07:33:45;7.60;96.50
54202;DHT22;40108;53.152;5.844;2022-11-23T07:36:12;7.60;96.50
54202;DHT22;40108;53.152;5.844;2022-11-23T07:38:38;7.60;96.50
54202;DHT22;40108;53.152;5.844;2022-11-23T07:41:04;7.60;96.50
54202;DHT22;40108;53.152;5.844;2022-11-23T07:43:29;7.60;96.50
54202;DHT22;40108;53.152;5.844;2022-11-23T07:45:55;7.60;96.50
54202;DHT22;40108;53.152;5.844;2022-11-23T07:48:24;7.60;96.40
54202;DHT22;40108;53.152;5.844;2022-11-23T07:50:53;7.60;96.40
54202;DHT22;40108;53.152;5.844;2022-11-23T07:53:19;7.60;96.40
54202;DHT22;40108;53.152;5.844;2022-11-23T07:55:45;7.60;96.30
54202;DHT22;40108;53.152;5.844;2022-11-23T07:58:11;7.60;96.30
54202;DHT22;40108;53.152;5.844;2022-11-23T08:00:37;7.60;96.30
54202;DHT22;40108;53.152;5.844;2022-11-23T08:03:03;7.60;96.20
54202;DHT22;40108;53.152;5.844;2022-11-23T08:05:31;7.60;96.10
54202;DHT22;40108;53.152;5.844;2022-11-23T08:07:58;7.60;96.10
54202;DHT22;40108;53.152;5.844;2022-11-23T08:10:25;7.60;96.10
54202;DHT22;40108;53.152;5.844;2022-11-23T08:12:51;7.60;96.10
54202;DHT22;40108;53.152;5.844;2022-11-23T08:15:16;7.70;96.00
54202;DHT22;40108;53.152;5.844;2022-11-23T08:17:42;7.60;96.00
54202;DHT22;40108;53.152;5.844;2022-11-23T08:20:08;7.70;95.90
54202;DHT22;40108;53.152;5.844;2022-11-23T08:22:34;7.70;95.90
54202;DHT22;40108;53.152;5.844;2022-11-23T08:25:00;7.70;95.90
54202;DHT22;40108;53.152;5.844;2022-11-23T08:27:25;7.70;95.90
54202;DHT22;40108;53.152;5.844;2022-11-23T08:29:51;7.70;95.80
54202;DHT22;40108;53.152;5.844;2022-11-23T08:32:16;7.70;95.70
54202;DHT22;40108;53.152;5.844;2022-11-23T08:34:42;7.80;95.60
54202;DHT22;40108;53.152;5.844;2022-11-23T08:37:09;7.90;95.50
54202;DHT22;40108;53.152;5.844;2022-11-23T08:39:35;7.90;95.50
54202;DHT22;40108;53.152;5.844;2022-11-23T08:42:00;7.90;95.40
54202;DHT22;40108;53.152;5.844;2022-11-23T08:44:26;8.00;95.30
54202;DHT22;40108;53.152;5.844;2022-11-23T08:46:52;8.10;95.10
54202;DHT22;40108;53.152;5.844;2022-11-23T08:49:18;8.10;94.90
54202;DHT22;40108;53.152;5.844;2022-11-23T08:51:43;8.20;94.80
54202;DHT22;40108;53.152;5.844;2022-11-23T08:54:09;8.20;94.60
54202;DHT22;40108;53.152;5.844;2022-11-23T08:56:35;8.20;94.40
54202;DHT22;40108;53.152;5.844;2022-11-23T08:59:01;8.20;94.40
54202;DHT22;40108;53.152;5.844;2022-11-23T09:01:26;8.20;94.10
54202;DHT22;40108;53.152;5.844;2022-11-23T09:03:52;8.20;93.90
54202;DHT22;40108;53.152;5.844;2022-11-23T09:06:19;8.20;93.90
54202;DHT22;40108;53.152;5.844;2022-11-23T09:08:45;8.20;93.90
54202;DHT22;40108;53.152;5.844;2022-11-23T09:11:12;8.20;93.90
54202;DHT22;40108;53.152;5.844;2022-11-23T09:13:38;8.20;93.90
54202;DHT22;40108;53.152;5.844;2022-11-23T09:16:05;8.20;93.70
54202;DHT22;40108;53.152;5.844;2022-11-23T09:18:31;8.20;93.40
54202;DHT22;40108;53.152;5.844;2022-11-23T09:21:02;8.20;93.20
54202;DHT22;40108;53.152;5.844;2022-11-23T09:23:28;8.20;93.20
54202;DHT22;40108;53.152;5.844;2022-11-23T09:25:57;8.20;93.00
54202;DHT22;40108;53.152;5.844;2022-11-23T09:28:23;8.20;93.00
54202;DHT22;40108;53.152;5.844;2022-11-23T09:30:49;8.20;92.40
54202;DHT22;40108;53.152;5.844;2022-11-23T09:33:15;8.20;92.60
54202;DHT22;40108;53.152;5.844;2022-11-23T09:35:41;8.20;92.50
54202;DHT22;40108;53.152;5.844;2022-11-23T09:38:06;8.30;91.90
54202;DHT22;40108;53.152;5.844;2022-11-23T09:40:36;8.20;92.10
54202;DHT22;40108;53.152;5.844;2022-11-23T09:43:34;8.30;92.20
54202;DHT22;40108;53.152;5.844;2022-11-23T09:46:16;8.30;92.40
54202;DHT22;40108;53.152;5.844;2022-11-23T09:49:10;8.30;92.30
54202;DHT22;40108;53.152;5.844;2022-11-23T09:51:37;8.30;92.10
54202;DHT22;40108;53.152;5.844;2022-11-23T09:54:14;8.40;91.90
54202;DHT22;40108;53.152;5.844;2022-11-23T09:56:44;8.40;92.10
54202;DHT22;40108;53.152;5.844;2022-11-23T09:59:40;8.40;92.20
54202;DHT22;40108;53.152;5.844;2022-11-23T10:02:10;8.30;92.30
54202;DHT22;40108;53.152;5.844;2022-11-23T10:04:41;8.30;92.40
54202;DHT22;40108;53.152;5.844;2022-11-23T10:10:09;8.30;92.60
54202;DHT22;40108;53.152;5.844;2022-11-23T10:15:44;8.40;92.90
54202;DHT22;40108;53.152;5.844;2022-11-23T10:23:56;8.40;92.70
54202;DHT22;40108;53.152;5.844;2022-11-23T10:26:36;8.40;92.90
54202;DHT22;40108;53.152;5.844;2022-11-23T10:29:40;8.40;93.00
54202;DHT22;40108;53.152;5.844;2022-11-23T10:32:19;8.40;93.00
54202;DHT22;40108;53.152;5.844;2022-11-23T10:35:11;8.50;93.10
54202;DHT22;40108;53.152;5.844;2022-11-23T10:37:39;8.60;92.90
54202;DHT22;40108;53.152;5.844;2022-11-23T10:42:55;8.70;92.60
54202;DHT22;40108;53.152;5.844;2022-11-23T10:45:26;8.60;92.70
54202;DHT22;40108;53.152;5.844;2022-11-23T10:47:55;8.60;92.90
54202;DHT22;40108;53.152;5.844;2022-11-23T10:50:39;8.80;93.30
54202;DHT22;40108;53.152;5.844;2022-11-23T10:55:46;9.40;92.00
54202;DHT22;40108;53.152;5.844;2022-11-23T10:58:27;9.70;91.70
54202;DHT22;40108;53.152;5.844;2022-11-23T11:01:05;9.80;90.30
54202;DHT22;40108;53.152;5.844;2022-11-23T11:03:33;9.70;89.60
54202;DHT22;40108;53.152;5.844;2022-11-23T11:05:59;9.70;89.60
54202;DHT22;40108;53.152;5.844;2022-11-23T11:08:48;9.80;89.80
54202;DHT22;40108;53.152;5.844;2022-11-23T11:11:32;9.90;89.30
54202;DHT22;40108;53.152;5.844;2022-11-23T11:14:02;10.00;88.70
54202;DHT22;40108;53.152;5.844;2022-11-23T11:17:09;10.00;88.90
54202;DHT22;40108;53.152;5.844;2022-11-23T11:19:49;10.10;88.20
54202;DHT22;40108;53.152;5.844;2022-11-23T11:22:31;10.10;87.90
54202;DHT22;40108;53.152;5.844;2022-11-23T11:24:58;10.10;87.50
54202;DHT22;40108;53.152;5.844;2022-11-23T11:27:24;10.10;87.90
54202;DHT22;40108;53.152;5.844;2022-11-23T11:29:53;10.10;87.70
54202;DHT22;40108;53.152;5.844;2022-11-23T11:35:25;10.20;87.10
54202;DHT22;40108;53.152;5.844;2022-11-23T11:37:57;10.10;87.00
54202;DHT22;40108;53.152;5.844;2022-11-23T11:45:51;10.00;87.00
54202;DHT22;40108;53.152;5.844;2022-11-23T11:48:22;10.20;86.60
54202;DHT22;40108;53.152;5.844;2022-11-23T11:53:52;10.20;85.70
54202;DHT22;40108;53.152;5.844;2022-11-23T12:01:59;10.20;86.40
54202;DHT22;40108;53.152;5.844;2022-11-23T12:10:53;10.40;86.00
54202;DHT22;40108;53.152;5.844;2022-11-23T12:13:40;10.40;84.50
54202;DHT22;40108;53.152;5.844;2022-11-23T12:24:55;10.40;84.40
54202;DHT22;40108;53.152;5.844;2022-11-23T12:30:19;10.40;84.40
54202;DHT22;40108;53.152;5.844;2022-11-23T12:33:02;10.40;83.60
54202;DHT22;40108;53.152;5.844;2022-11-23T12:50:16;10.40;84.40
54202;DHT22;40108;53.152;5.844;2022-11-23T12:58:30;10.40;83.00
54202;DHT22;40108;53.152;5.844;2022-11-23T13:01:21;10.40;83.00
54202;DHT22;40108;53.152;5.844;2022-11-23T13:03:59;10.30;82.70
54202;DHT22;40108;53.152;5.844;2022-11-23T13:18:06;9.80;82.60
54202;DHT22;40108;53.152;5.844;2022-11-23T13:23:16;9.60;83.00
54202;DHT22;40108;53.152;5.844;2022-11-23T13:28:37;9.50;83.90
54202;DHT22;40108;53.152;5.844;2022-11-23T13:33:43;9.50;83.80
54202;DHT22;40108;53.152;5.844;2022-11-23T13:36:11;9.40;83.40
54202;DHT22;40108;53.152;5.844;2022-11-23T13:38:39;9.40;83.70
54202;DHT22;40108;53.152;5.844;2022-11-23T13:47:00;9.20;84.00
54202;DHT22;40108;53.152;5.844;2022-11-23T13:57:38;9.10;84.40
54202;DHT22;40108;53.152;5.844;2022-11-23T14:00:47;9.10;84.50
54202;DHT22;40108;53.152;5.844;2022-11-23T14:09:10;8.90;85.20
54202;DHT22;40108;53.152;5.844;2022-11-23T14:14:50;8.80;85.30
54202;DHT22;40108;53.152;5.844;2022-11-23T14:25:41;8.70;85.70
54202;DHT22;40108;53.152;5.844;2022-11-23T14:41:33;8.50;86.10
54202;DHT22;40108;53.152;5.844;2022-11-23T14:44:01;8.50;86.10
54202;DHT22;40108;53.152;5.844;2022-11-23T14:46:28;8.40;86.20
54202;DHT22;40108;53.152;5.844;2022-11-23T14:49:11;8.40;86.30
54202;DHT22;40108;53.152;5.844;2022-11-23T14:51:42;8.40;86.30
54202;DHT22;40108;53.152;5.844;2022-11-23T14:54:09;8.30;86.50
54202;DHT22;40108;53.152;5.844;2022-11-23T14:56:43;8.30;86.60
54202;DHT22;40108;53.152;5.844;2022-11-23T15:01:49;8.30;86.90
54202;DHT22;40108;53.152;5.844;2022-11-23T15:04:26;8.30;86.80
54202;DHT22;40108;53.152;5.844;2022-11-23T15:07:12;8.40;86.60
54202;DHT22;40108;53.152;5.844;2022-11-23T15:09:50;8.40;87.20
54202;DHT22;40108;53.152;5.844;2022-11-23T15:12:24;8.40;88.20
54202;DHT22;40108;53.152;5.844;2022-11-23T15:14:52;8.30;89.00
54202;DHT22;40108;53.152;5.844;2022-11-23T15:17:22;8.20;89.50
54202;DHT22;40108;53.152;5.844;2022-11-23T15:19:58;8.20;89.90
54202;DHT22;40108;53.152;5.844;2022-11-23T15:22:24;8.20;90.20
54202;DHT22;40108;53.152;5.844;2022-11-23T15:24:51;8.20;90.40
54202;DHT22;40108;53.152;5.844;2022-11-23T15:27:39;8.10;90.50
54202;DHT22;40108;53.152;5.844;2022-11-23T15:30:26;8.10;90.50
54202;DHT22;40108;53.152;5.844;2022-11-23T15:33:07;8.10;90.40
54202;DHT22;40108;53.152;5.844;2022-11-23T15:35:37;8.20;90.20
54202;DHT22;40108;53.152;5.844;2022-11-23T15:38:06;8.10;90.10
54202;DHT22;40108;53.152;5.844;2022-11-23T15:40:36;8.20;90.60
54202;DHT22;40108;53.152;5.844;2022-11-23T15:43:02;8.10;90.80
54202;DHT22;40108;53.152;5.844;2022-11-23T15:46:02;8.10;90.90
54202;DHT22;40108;53.152;5.844;2022-11-23T15:48:33;8.10;91.10
54202;DHT22;40108;53.152;5.844;2022-11-23T15:51:02;8.10;91.10
54202;DHT22;40108;53.152;5.844;2022-11-23T15:53:49;8.10;91.00
54202;DHT22;40108;53.152;5.844;2022-11-23T15:58:47;8.10;91.20
54202;DHT22;40108;53.152;5.844;2022-11-23T16:01:14;8.10;91.40
54202;DHT22;40108;53.152;5.844;2022-11-23T16:03:51;8.10;91.40
54202;DHT22;40108;53.152;5.844;2022-11-23T16:08:50;8.10;91.80
54202;DHT22;40108;53.152;5.844;2022-11-23T16:11:31;8.00;92.00
54202;DHT22;40108;53.152;5.844;2022-11-23T16:16:36;8.10;91.90
54202;DHT22;40108;53.152;5.844;2022-11-23T16:19:05;8.10;92.00
54202;DHT22;40108;53.152;5.844;2022-11-23T16:21:43;8.10;91.90
54202;DHT22;40108;53.152;5.844;2022-11-23T16:24:18;8.00;92.10
54202;DHT22;40108;53.152;5.844;2022-11-23T16:26:45;8.00;92.20
54202;DHT22;40108;53.152;5.844;2022-11-23T16:29:40;7.90;92.40
54202;DHT22;40108;53.152;5.844;2022-11-23T16:32:22;7.90;92.70
54202;DHT22;40108;53.152;5.844;2022-11-23T16:34:48;7.90;92.80
54202;DHT22;40108;53.152;5.844;2022-11-23T16:37:14;7.90;92.80
54202;DHT22;40108;53.152;5.844;2022-11-23T16:39:40;7.90;92.90
54202;DHT22;40108;53.152;5.844;2022-11-23T16:42:05;7.90;93.10
54202;DHT22;40108;53.152;5.844;2022-11-23T16:44:31;7.90;93.20
54202;DHT22;40108;53.152;5.844;2022-11-23T16:47:21;7.80;93.20
54202;DHT22;40108;53.152;5.844;2022-11-23T16:49:48;7.90;93.20
54202;DHT22;40108;53.152;5.844;2022-11-23T16:52:14;7.90;93.40
54202;DHT22;40108;53.152;5.844;2022-11-23T16:54:39;7.90;93.40
54202;DHT22;40108;53.152;5.844;2022-11-23T16:57:05;7.90;93.60
54202;DHT22;40108;53.152;5.844;2022-11-23T16:59:31;7.80;93.80
54202;DHT22;40108;53.152;5.844;2022-11-23T17:01:57;7.80;94.00
54202;DHT22;40108;53.152;5.844;2022-11-23T17:04:24;7.80;94.20
54202;DHT22;40108;53.152;5.844;2022-11-23T17:06:49;7.70;94.40
54202;DHT22;40108;53.152;5.844;2022-11-23T17:09:15;7.70;94.50
54202;DHT22;40108;53.152;5.844;2022-11-23T17:11:43;7.70;94.60
54202;DHT22;40108;53.152;5.844;2022-11-23T17:14:13;7.70;94.80
54202;DHT22;40108;53.152;5.844;2022-11-23T17:16:39;7.70;94.90
54202;DHT22;40108;53.152;5.844;2022-11-23T17:19:14;7.70;95.00
54202;DHT22;40108;53.152;5.844;2022-11-23T17:21:40;7.70;95.10
54202;DHT22;40108;53.152;5.844;2022-11-23T17:24:05;7.70;95.20
54202;DHT22;40108;53.152;5.844;2022-11-23T17:26:36;7.70;95.20
54202;DHT22;40108;53.152;5.844;2022-11-23T17:29:06;7.70;95.20
54202;DHT22;40108;53.152;5.844;2022-11-23T17:31:32;7.70;95.30
54202;DHT22;40108;53.152;5.844;2022-11-23T17:33:58;7.70;95.40
54202;DHT22;40108;53.152;5.844;2022-11-23T17:36:24;7.70;95.40
54202;DHT22;40108;53.152;5.844;2022-11-23T17:38:50;7.70;95.30
54202;DHT22;40108;53.152;5.844;2022-11-23T17:41:15;7.70;95.40
54202;DHT22;40108;53.152;5.844;2022-11-23T17:43:41;7.70;95.30
54202;DHT22;40108;53.152;5.844;2022-11-23T17:46:16;7.70;95.40
54202;DHT22;40108;53.152;5.844;2022-11-23T17:48:43;7.70;95.60
54202;DHT22;40108;53.152;5.844;2022-11-23T17:51:10;7.70;95.70
54202;DHT22;40108;53.152;5.844;2022-11-23T17:53:37;7.70;95.90
54202;DHT22;40108;53.152;5.844;2022-11-23T17:56:03;7.60;96.00
54202;DHT22;40108;53.152;5.844;2022-11-23T17:58:28;7.70;96.10
54202;DHT22;40108;53.152;5.844;2022-11-23T18:00:54;7.70;96.10
54202;DHT22;40108;53.152;5.844;2022-11-23T18:03:20;7.70;96.20
54202;DHT22;40108;53.152;5.844;2022-11-23T18:05:45;7.70;96.20
54202;DHT22;40108;53.152;5.844;2022-11-23T18:08:13;7.60;96.30
54202;DHT22;40108;53.152;5.844;2022-11-23T18:10:38;7.70;96.30
54202;DHT22;40108;53.152;5.844;2022-11-23T18:13:04;7.70;96.20
54202;DHT22;40108;53.152;5.844;2022-11-23T18:15:30;7.70;96.20
54202;DHT22;40108;53.152;5.844;2022-11-23T18:17:56;7.70;96.20
54202;DHT22;40108;53.152;5.844;2022-11-23T18:20:21;7.70;96.20
54202;DHT22;40108;53.152;5.844;2022-11-23T18:22:47;7.70;96.20
54202;DHT22;40108;53.152;5.844;2022-11-23T18:25:13;7.70;96.20
54202;DHT22;40108;53.152;5.844;2022-11-23T18:27:39;7.70;96.20
54202;DHT22;40108;53.152;5.844;2022-11-23T18:30:07;7.70;96.20